createdAt,value
2019-03-11T00:02:21.671Z,0.70
2019-03-11T00:05:14.729Z,0.78
2019-03-11T00:08:07.785Z,0.80
2019-03-11T00:11:00.847Z,0.80
2019-03-11T00:13:53.899Z,0.93
2019-03-11T00:16:46.952Z,0.90
2019-03-11T00:19:40.013Z,0.80
2019-03-11T00:22:29.138Z,0.90
2019-03-11T00:25:22.279Z,0.80
2019-03-11T00:28:15.336Z,1.10
2019-03-11T00:31:08.392Z,0.72
2019-03-11T00:34:01.191Z,1.15
2019-03-11T00:36:53.992Z,1.17
2019-03-11T00:39:47.048Z,0.95
2019-03-11T00:42:40.108Z,0.80
2019-03-11T00:45:33.673Z,0.95
2019-03-11T00:48:27.757Z,1.25
2019-03-11T00:51:24.648Z,0.95
2019-03-11T00:54:27.820Z,0.90
2019-03-11T00:57:21.003Z,1.10
2019-03-11T01:00:13.801Z,0.80
2019-03-11T01:03:06.857Z,1.07
2019-03-11T01:05:54.287Z,1.10
2019-03-11T01:08:47.347Z,0.82
2019-03-11T01:11:40.391Z,1.12
2019-03-11T01:14:35.841Z,1.47
2019-03-11T01:17:28.297Z,0.95
2019-03-11T01:20:21.353Z,0.90
2019-03-11T01:23:14.421Z,0.78
2019-03-11T01:26:07.464Z,0.72
2019-03-11T01:28:54.795Z,1.50
2019-03-11T01:31:47.943Z,1.05
2019-03-11T01:34:35.371Z,1.20
2019-03-11T01:37:23.032Z,0.75
2019-03-11T01:40:16.111Z,1.07
2019-03-11T01:43:09.673Z,0.98
2019-03-11T01:46:02.730Z,0.98
2019-03-11T01:48:55.784Z,1.02
2019-03-11T01:51:48.841Z,1.82
2019-03-11T01:54:41.894Z,1.20
2019-03-11T01:57:34.954Z,1.00
2019-03-11T02:00:28.518Z,1.55
2019-03-11T02:03:21.583Z,0.90
2019-03-11T02:06:15.403Z,1.10
2019-03-11T02:09:08.454Z,0.90
2019-03-11T02:12:01.529Z,1.02
2019-03-11T02:14:54.823Z,1.07
2019-03-11T02:17:48.413Z,0.90
2019-03-11T02:20:41.745Z,1.02
2019-03-11T02:23:35.537Z,1.12
2019-03-11T02:26:28.583Z,1.15
2019-03-11T02:29:21.641Z,1.30
2019-03-11T02:32:14.730Z,1.32
2019-03-11T02:35:08.522Z,1.10
2019-03-11T02:38:01.581Z,1.02
2019-03-11T02:40:54.638Z,1.02
2019-03-11T02:43:47.947Z,1.40
2019-03-11T02:46:41.260Z,1.27
2019-03-11T02:49:31.153Z,1.10
2019-03-11T02:52:24.045Z,1.05
2019-03-11T02:55:17.100Z,1.07
2019-03-11T02:58:10.409Z,0.90
2019-03-11T03:01:03.472Z,1.05
2019-03-11T03:03:58.060Z,1.17
2019-03-11T03:06:51.629Z,1.17
2019-03-11T03:09:44.954Z,0.90
2019-03-11T03:12:37.997Z,1.10
2019-03-11T03:15:31.049Z,1.40
2019-03-11T03:18:26.664Z,1.60
2019-03-11T03:21:19.980Z,1.12
2019-03-11T03:24:20.460Z,1.70
2019-03-11T03:27:13.773Z,1.02
2019-03-11T03:30:07.089Z,1.20
2019-03-11T03:33:02.966Z,1.07
2019-03-11T03:35:56.265Z,1.10
2019-03-11T03:38:49.584Z,1.50
2019-03-11T03:41:42.893Z,0.85
2019-03-11T03:44:36.202Z,1.00
2019-03-11T03:47:29.262Z,1.12
2019-03-11T03:50:22.324Z,1.17
2019-03-11T03:53:15.375Z,1.17
2019-03-11T03:56:08.423Z,1.55
2019-03-11T03:59:02.504Z,1.67
2019-03-11T04:01:55.560Z,1.30
2019-03-11T04:04:48.364Z,1.10
2019-03-11T04:07:41.417Z,1.05
2019-03-11T04:10:35.250Z,1.17
2019-03-11T04:13:28.039Z,1.42
2019-03-11T04:16:17.334Z,1.92
2019-03-11T04:19:11.079Z,1.65
2019-03-11T04:22:04.135Z,1.17
2019-03-11T04:24:56.939Z,1.15
2019-03-11T04:27:49.995Z,1.10
2019-03-11T04:30:39.979Z,0.90
2019-03-11T04:33:33.035Z,0.88
2019-03-11T04:36:26.118Z,1.07
2019-03-11T04:39:19.910Z,1.15
2019-03-11T04:42:12.713Z,1.30
2019-03-11T04:45:05.771Z,1.40
2019-03-11T04:47:58.568Z,1.60
2019-03-11T04:50:51.621Z,1.05
2019-03-11T04:53:44.426Z,0.93
2019-03-11T04:56:37.224Z,1.40
2019-03-11T04:59:34.374Z,1.05
2019-03-11T05:02:27.174Z,1.02
2019-03-11T05:05:19.976Z,0.93
2019-03-11T05:08:13.036Z,1.15
2019-03-11T05:11:06.085Z,1.30
2019-03-11T05:13:58.888Z,1.00
2019-03-11T05:16:51.687Z,1.20
2019-03-11T05:19:44.488Z,1.37
2019-03-11T05:22:37.551Z,1.00
2019-03-11T05:25:30.611Z,1.70
2019-03-11T05:28:23.656Z,1.92
2019-03-11T05:31:16.457Z,1.47
2019-03-11T05:34:09.512Z,1.10
2019-03-11T05:37:02.570Z,1.27
2019-03-11T05:39:55.624Z,1.27
2019-03-11T05:42:48.683Z,1.20
2019-03-11T05:45:41.991Z,1.65
2019-03-11T05:48:35.306Z,1.92
2019-03-11T05:51:31.850Z,1.20
2019-03-11T05:54:21.163Z,1.22
2019-03-11T05:57:10.632Z,1.47
2019-03-11T06:00:05.225Z,1.32
2019-03-11T06:02:58.280Z,0.88
2019-03-11T06:05:51.593Z,1.17
2019-03-11T06:08:46.184Z,0.82
2019-03-11T06:11:40.264Z,0.70
2019-03-11T06:14:33.321Z,0.72
2019-03-11T06:17:33.870Z,0.80
2019-03-11T06:20:36.841Z,0.60
2019-03-11T06:23:30.666Z,0.60
2019-03-11T06:26:23.467Z,0.70
2019-03-11T06:29:16.519Z,0.90
2019-03-11T06:32:11.624Z,1.00
2019-03-11T06:35:04.425Z,0.70
2019-03-11T06:37:57.479Z,0.60
2019-03-11T06:40:51.817Z,1.02
2019-03-11T06:43:44.616Z,0.80
2019-03-11T06:46:37.416Z,0.85
2019-03-11T06:49:31.754Z,0.90
2019-03-11T06:52:24.550Z,1.17
2019-03-11T06:55:13.914Z,0.78
2019-03-11T06:58:06.825Z,0.80
2019-03-11T07:01:02.184Z,1.00
2019-03-11T07:03:54.991Z,0.80
2019-03-11T07:06:49.080Z,0.90
2019-03-11T07:09:42.126Z,0.98
2019-03-11T07:12:34.922Z,0.70
2019-03-11T07:15:28.233Z,1.10
2019-03-11T07:18:21.293Z,0.72
2019-03-11T07:21:14.344Z,0.80
2019-03-11T07:24:07.402Z,0.93
2019-03-11T07:27:00.204Z,0.95
2019-03-11T07:29:53.256Z,0.80
2019-03-11T07:32:47.593Z,0.93
2019-03-11T07:35:40.392Z,0.90
2019-03-11T07:38:33.191Z,0.88
2019-03-11T07:41:25.998Z,1.37
2019-03-11T07:44:20.071Z,0.93
2019-03-11T07:47:12.872Z,1.30
2019-03-11T07:50:07.026Z,1.30
2019-03-11T07:53:00.009Z,1.12
2019-03-11T07:55:52.812Z,1.57
2019-03-11T07:58:45.606Z,1.45
2019-03-11T08:01:38.664Z,1.57
2019-03-11T08:04:31.722Z,1.15
2019-03-11T08:07:27.332Z,1.35
2019-03-11T08:10:17.833Z,1.17
2019-03-11T08:13:10.893Z,1.07
2019-03-11T08:16:03.689Z,1.80
2019-03-11T08:18:56.742Z,1.30
2019-03-11T08:21:49.804Z,1.27
2019-03-11T08:24:42.602Z,1.20
2019-03-11T08:27:35.398Z,1.30
2019-03-11T08:30:24.620Z,1.42
2019-03-11T08:33:18.696Z,1.50
2019-03-11T08:36:11.762Z,1.55
2019-03-11T08:39:04.552Z,1.30
2019-03-11T08:41:57.363Z,1.12
2019-03-11T08:44:50.152Z,1.07
2019-03-11T08:47:42.950Z,1.00
2019-03-11T08:50:37.033Z,1.17
2019-03-11T08:53:29.832Z,1.02
2019-03-11T08:56:22.886Z,1.45
2019-03-11T08:59:15.691Z,1.40
2019-03-11T09:02:09.768Z,1.90
2019-03-11T09:05:02.574Z,1.37
2019-03-11T09:07:56.134Z,2.00
2019-03-11T09:10:48.956Z,1.40
2019-03-11T09:13:40.175Z,1.47
2019-03-11T09:16:33.254Z,1.40
2019-03-11T09:19:26.313Z,1.27
2019-03-11T09:22:19.125Z,1.20
2019-03-11T09:25:12.171Z,1.47
2019-03-11T09:28:04.972Z,1.40
2019-03-11T09:30:58.284Z,1.30
2019-03-11T09:33:51.079Z,1.50
2019-03-11T09:36:43.882Z,1.40
2019-03-11T09:39:36.945Z,1.30
2019-03-11T09:42:30.006Z,2.35
2019-03-11T09:45:24.519Z,1.42
2019-03-11T09:48:16.619Z,1.62
2019-03-11T09:51:09.415Z,1.22
2019-03-11T09:54:02.228Z,2.27
2019-03-11T09:56:55.275Z,1.62
2019-03-11T09:59:48.071Z,1.92
2019-03-11T10:02:51.780Z,1.35
2019-03-11T10:05:26.539Z,1.47
2019-03-11T10:08:19.561Z,1.15
2019-03-11T10:11:12.362Z,1.42
2019-03-11T10:14:05.422Z,0.62
2019-03-11T10:16:58.477Z,1.07
2019-03-11T10:19:51.273Z,0.95
2019-03-11T10:22:40.235Z,1.40
2019-03-11T10:25:33.058Z,1.02
2019-03-11T10:28:26.856Z,1.42
2019-03-11T10:31:19.658Z,1.00
2019-03-11T10:34:12.714Z,1.00
2019-03-11T10:37:05.770Z,0.90
2019-03-11T10:39:58.566Z,1.40
2019-03-11T10:42:51.371Z,1.20
2019-03-11T10:45:44.167Z,1.35
2019-03-11T10:48:40.823Z,1.65
2019-03-11T10:51:33.865Z,1.45
2019-03-11T10:54:26.920Z,1.20
2019-03-11T10:57:20.489Z,1.50
2019-03-11T11:00:13.292Z,1.07
2019-03-11T11:03:03.156Z,1.27
2019-03-11T11:05:56.069Z,1.37
2019-03-11T11:08:49.128Z,1.82
2019-03-11T11:11:42.697Z,1.20
2019-03-11T11:14:35.498Z,0.95
2019-03-11T11:17:29.579Z,1.22
2019-03-11T11:20:22.637Z,0.85
2019-03-11T11:23:15.498Z,1.15
2019-03-11T11:26:08.496Z,1.67
2019-03-11T11:29:01.545Z,1.12
2019-03-11T11:31:50.675Z,1.00
2019-03-11T11:34:43.561Z,1.50
2019-03-11T11:37:36.360Z,1.02
2019-03-11T11:40:30.438Z,1.10
2019-03-11T11:43:19.399Z,1.50
2019-03-11T11:46:12.454Z,1.27
2019-03-11T11:49:05.513Z,1.35
2019-03-11T11:51:58.569Z,1.80
2019-03-11T11:54:51.631Z,1.07
2019-03-11T11:57:44.423Z,2.17
2019-03-11T12:00:36.937Z,1.25
2019-03-11T12:03:37.191Z,0.70
2019-03-11T12:06:30.248Z,1.40
2019-03-11T12:09:23.047Z,1.47
2019-03-11T12:12:16.104Z,1.98
2019-03-11T12:15:09.160Z,1.07
2019-03-11T12:18:01.959Z,1.65
2019-03-11T12:20:55.018Z,1.25
2019-03-11T12:23:48.073Z,1.42
2019-03-11T12:26:40.872Z,1.07
2019-03-11T12:29:35.209Z,1.82
2019-03-11T12:32:28.009Z,1.30
2019-03-11T12:35:21.067Z,0.62
2019-03-11T12:38:10.279Z,0.80
2019-03-11T12:41:03.081Z,1.40
2019-03-11T12:43:56.392Z,1.07
2019-03-11T12:46:49.447Z,1.20
2019-03-11T12:49:43.272Z,1.27
2019-03-11T12:52:36.327Z,1.00
2019-03-11T12:55:26.311Z,1.00
2019-03-11T12:58:20.135Z,1.67
2019-03-11T13:01:14.217Z,1.55
2019-03-11T13:04:08.298Z,1.40
2019-03-11T13:07:01.351Z,1.20
2019-03-11T13:09:54.166Z,0.75
2019-03-11T13:12:47.208Z,0.85
2019-03-11T13:15:40.008Z,1.05
2019-03-11T13:18:43.048Z,0.75
2019-03-11T13:21:39.365Z,1.02
2019-03-11T13:24:32.232Z,1.20
2019-03-11T13:27:26.055Z,1.20
2019-03-11T13:33:24.461Z,0.95
2019-03-11T13:36:17.256Z,1.20
2019-03-11T13:39:11.336Z,1.02
2019-03-11T13:42:05.417Z,1.12
2019-03-11T13:44:58.220Z,1.17
2019-03-11T13:47:47.418Z,1.30
2019-03-11T13:50:40.231Z,1.10
2019-03-11T13:53:28.428Z,0.88
2019-03-11T13:56:21.279Z,1.20
2019-03-11T13:59:14.026Z,1.10
2019-03-11T14:02:03.224Z,1.35
2019-03-11T14:04:56.295Z,0.93
2019-03-11T14:07:49.094Z,1.05
2019-03-11T14:10:42.153Z,1.45
2019-03-11T14:13:35.209Z,1.07
2019-03-11T14:16:28.268Z,1.15
2019-03-11T14:19:21.573Z,1.37
2019-03-11T14:22:14.650Z,0.95
2019-03-11T14:25:07.706Z,0.80
2019-03-11T14:28:02.280Z,1.55
2019-03-11T14:30:55.851Z,0.90
2019-03-11T14:33:48.649Z,0.90
2019-03-11T14:36:41.451Z,1.22
2019-03-11T14:39:34.247Z,0.93
2019-03-11T14:42:27.047Z,1.27
2019-03-11T14:45:20.106Z,0.95
2019-03-11T14:48:12.905Z,1.05
2019-03-11T14:51:05.712Z,1.00
2019-03-11T14:53:58.759Z,1.05
2019-03-11T14:56:51.815Z,1.30
2019-03-11T14:59:45.127Z,0.93
2019-03-11T15:02:38.951Z,1.50
2019-03-11T15:05:32.007Z,0.95
2019-03-11T15:08:25.064Z,1.20
2019-03-11T15:11:20.310Z,1.10
2019-03-11T15:14:22.187Z,1.60
2019-03-11T15:17:17.035Z,1.42
2019-03-11T15:20:10.092Z,1.22
2019-03-11T15:23:07.836Z,1.05
2019-03-11T15:25:56.969Z,1.50
2019-03-11T15:28:50.792Z,1.35
2019-03-11T15:31:44.621Z,0.95
2019-03-11T15:34:34.364Z,1.27
2019-03-11T15:37:27.398Z,1.77
2019-03-11T15:40:20.456Z,1.40
2019-03-11T15:43:09.942Z,1.47
2019-03-11T15:46:04.777Z,1.65
2019-03-11T15:48:58.600Z,1.85
2019-03-11T15:51:51.402Z,1.47
2019-03-11T15:54:44.199Z,1.47
2019-03-11T15:57:39.212Z,2.58
2019-03-11T16:00:30.826Z,1.05
2019-03-11T16:03:24.691Z,1.52
2019-03-11T16:06:17.448Z,1.55
2019-03-11T16:09:11.608Z,1.60
2019-03-11T16:12:03.048Z,1.35
2019-03-11T16:14:55.848Z,2.02
2019-03-11T16:17:49.165Z,1.20
2019-03-11T16:20:41.960Z,1.70
2019-03-11T16:23:35.016Z,1.50
2019-03-11T16:26:27.817Z,1.47
2019-03-11T16:29:20.614Z,1.02
2019-03-11T16:32:13.415Z,1.57
2019-03-11T16:35:06.214Z,1.98
2019-03-11T16:37:59.017Z,1.42
2019-03-11T16:40:51.816Z,1.50
2019-03-11T16:43:44.614Z,1.05
2019-03-11T16:46:38.441Z,1.55
2019-03-11T16:49:31.496Z,1.35
2019-03-11T16:52:25.579Z,1.40
2019-03-11T16:55:18.632Z,1.75
2019-03-11T16:58:11.433Z,1.60
2019-03-11T17:01:04.487Z,1.27
2019-03-11T17:03:57.290Z,1.50
2019-03-11T17:06:50.599Z,1.07
2019-03-11T17:09:43.659Z,1.47
2019-03-11T17:12:36.715Z,1.17
2019-03-11T17:15:29.771Z,1.42
2019-03-11T17:18:22.566Z,1.30
2019-03-11T17:21:09.867Z,1.90
2019-03-11T17:24:02.798Z,1.30
2019-03-11T17:26:55.846Z,1.50
2019-03-11T17:29:48.647Z,1.57
2019-03-11T17:32:41.449Z,1.40
2019-03-11T17:35:34.503Z,1.35
2019-03-11T17:38:27.559Z,1.62
2019-03-11T17:41:20.622Z,1.70
2019-03-11T17:44:13.415Z,1.70
2019-03-11T17:47:06.730Z,1.20
2019-03-11T17:49:59.786Z,1.52
2019-03-11T17:52:52.845Z,1.25
2019-03-11T17:55:53.062Z,1.40
2019-03-11T17:58:47.142Z,1.17
2019-03-11T18:01:39.944Z,1.10
2019-03-11T18:04:32.746Z,2.20
2019-03-11T18:07:21.704Z,1.50
2019-03-11T18:11:11.080Z,1.57
2019-03-11T18:14:03.880Z,1.95
2019-03-11T18:16:56.678Z,1.40
2019-03-11T18:19:49.735Z,2.05
2019-03-11T18:22:43.819Z,1.60
2019-03-11T18:25:37.128Z,1.75
2019-03-11T18:28:30.972Z,1.70
2019-03-11T18:31:24.009Z,1.70
2019-03-11T18:34:17.335Z,1.92
2019-03-11T18:37:06.281Z,1.40
2019-03-11T18:39:59.334Z,1.87
2019-03-11T18:42:48.307Z,2.02
2019-03-11T18:45:41.105Z,1.50
2019-03-11T18:48:34.159Z,1.98
2019-03-11T18:51:27.205Z,2.30
2019-03-11T18:54:20.361Z,1.20
2019-03-11T18:57:13.320Z,2.12
2019-03-11T19:00:06.650Z,1.75
2019-03-11T19:02:59.723Z,1.57
2019-03-11T19:05:53.514Z,1.15
2019-03-11T19:08:46.829Z,2.10
2019-03-11T19:11:36.651Z,1.30
2019-03-11T19:14:25.816Z,2.30
2019-03-11T19:17:18.826Z,1.25
2019-03-11T19:20:12.645Z,2.02
2019-03-11T19:23:05.726Z,1.70
2019-03-11T19:25:58.791Z,1.40
2019-03-11T19:28:51.850Z,1.80
2019-03-11T19:31:44.618Z,2.17
2019-03-11T19:34:37.690Z,2.08
2019-03-11T19:37:30.481Z,1.37
2019-03-11T19:40:23.559Z,2.67
2019-03-11T19:43:16.607Z,1.77
2019-03-11T19:46:09.899Z,2.00
2019-03-11T19:49:03.729Z,1.50
2019-03-11T19:51:56.546Z,1.77
2019-03-11T19:54:49.656Z,2.50
2019-03-11T19:57:42.378Z,1.35
2019-03-11T20:00:33.136Z,1.25
2019-03-11T20:03:30.347Z,1.12
2019-03-11T20:06:19.760Z,1.52
2019-03-11T20:09:09.789Z,1.60
2019-03-11T20:12:02.831Z,2.17
2019-03-11T20:14:56.159Z,1.80
2019-03-11T20:17:49.465Z,2.08
2019-03-11T20:20:43.239Z,2.12
2019-03-11T20:23:38.085Z,1.70
2019-03-11T20:26:29.173Z,1.42
2019-03-11T20:29:23.444Z,1.90
2019-03-11T20:32:15.238Z,2.72
2019-03-11T20:35:08.043Z,2.58
2019-03-11T20:38:01.120Z,1.95
2019-03-11T20:40:54.430Z,1.62
2019-03-11T20:43:47.174Z,3.08
2019-03-11T20:46:40.263Z,2.72
2019-03-11T20:49:33.290Z,2.90
2019-03-11T20:52:28.598Z,1.70
2019-03-11T20:55:15.657Z,3.20
2019-03-11T20:58:10.700Z,2.17
2019-03-11T21:01:04.042Z,2.00
2019-03-11T21:03:57.099Z,1.87
2019-03-11T21:06:50.111Z,2.35
2019-03-11T21:09:43.196Z,4.50
2019-03-11T21:12:36.207Z,3.50
2019-03-11T21:15:29.540Z,3.62
2019-03-11T21:18:22.870Z,2.20
2019-03-11T21:21:16.938Z,2.20
2019-03-11T21:24:13.725Z,2.08
2019-03-11T21:27:00.706Z,5.10
2019-03-11T21:29:54.037Z,3.80
2019-03-11T21:32:47.351Z,3.45
2019-03-11T21:35:40.170Z,2.70
2019-03-11T21:38:33.198Z,2.62
2019-03-11T21:41:26.331Z,3.45
2019-03-11T21:44:19.060Z,4.10
2019-03-11T21:47:12.359Z,4.15
2019-03-11T21:50:05.416Z,3.65
2019-03-11T21:52:58.509Z,3.50
2019-03-11T21:55:51.270Z,3.67
2019-03-11T21:58:44.136Z,4.22
2019-03-11T22:01:38.151Z,3.65
2019-03-11T22:04:30.956Z,3.00
2019-03-11T22:07:23.750Z,3.77
2019-03-11T22:10:16.553Z,3.02
2019-03-11T22:13:09.353Z,4.15
2019-03-11T22:16:02.409Z,3.33
2019-03-11T22:18:55.206Z,3.17
2019-03-11T22:21:48.267Z,3.30
2019-03-11T22:24:41.064Z,3.42
2019-03-11T22:27:34.121Z,3.47
2019-03-11T22:30:28.455Z,3.02
2019-03-11T22:33:17.414Z,2.77
2019-03-11T22:36:10.215Z,3.60
2019-03-11T22:39:03.269Z,2.80
2019-03-11T22:41:56.326Z,3.20
2019-03-11T22:44:49.386Z,2.62
2019-03-11T22:47:43.722Z,2.67
2019-03-11T22:50:36.778Z,2.77
2019-03-11T22:53:29.831Z,2.85
2019-03-11T22:56:22.630Z,2.50
2019-03-11T22:59:16.711Z,2.58
2019-03-11T23:02:11.658Z,2.08
2019-03-11T23:05:03.636Z,3.35
2019-03-11T23:07:56.646Z,2.85
2019-03-11T23:10:53.034Z,2.95
2019-03-11T23:13:46.087Z,2.80
2019-03-11T23:16:39.913Z,2.80
2019-03-11T23:19:32.970Z,2.35
2019-03-11T23:22:26.023Z,2.75
2019-03-11T23:25:18.826Z,2.37
2019-03-11T23:28:12.393Z,2.35
2019-03-11T23:31:05.457Z,2.60
2019-03-11T23:33:58.504Z,2.87
2019-03-11T23:36:51.561Z,2.98
2019-03-11T23:39:45.385Z,2.83
2019-03-11T23:42:38.441Z,2.85
2019-03-11T23:45:31.751Z,3.52
2019-03-11T23:48:24.808Z,3.10
2019-03-11T23:51:17.871Z,2.60
2019-03-11T23:54:10.671Z,2.20
2019-03-11T23:57:03.728Z,2.65
2019-03-11T23:59:56.786Z,2.45
